createdAt,value
2022-10-05T00:01:00.042Z,15.80
2022-10-05T00:03:33.568Z,15.80
2022-10-05T00:06:01.764Z,15.80
2022-10-05T00:08:34.817Z,15.80
2022-10-05T00:11:02.914Z,15.70
2022-10-05T00:13:31.982Z,15.50
2022-10-05T00:16:09.263Z,15.30
2022-10-05T00:18:37.463Z,15.10
2022-10-05T00:21:14.674Z,15.30
2022-10-05T00:23:43.958Z,15.30
2022-10-05T00:26:15.579Z,15.40
2022-10-05T00:28:43.435Z,15.60
2022-10-05T00:31:17.526Z,15.80
2022-10-05T00:33:45.460Z,16.00
2022-10-05T00:36:13.631Z,16.10
2022-10-05T00:38:43.731Z,16.20
2022-10-05T00:41:18.239Z,16.20
2022-10-05T00:44:27.838Z,16.20
2022-10-05T00:49:52.116Z,16.30
2022-10-05T00:52:29.424Z,16.30
2022-10-05T00:55:05.484Z,16.40
2022-10-05T00:57:44.959Z,16.40
2022-10-05T01:00:17.296Z,16.30
2022-10-05T01:02:52.991Z,16.30
2022-10-05T01:05:34.293Z,16.40
2022-10-05T01:08:12.242Z,16.20
2022-10-05T01:10:47.221Z,16.10
2022-10-05T01:13:25.488Z,16.10
2022-10-05T01:15:59.255Z,16.00
2022-10-05T01:18:39.033Z,16.00
2022-10-05T01:21:14.553Z,16.00
2022-10-05T01:24:15.846Z,15.80
2022-10-05T01:27:12.567Z,15.70
2022-10-05T01:29:48.711Z,15.70
2022-10-05T01:32:24.046Z,15.70
2022-10-05T01:35:00.785Z,15.70
2022-10-05T01:37:36.188Z,15.80
2022-10-05T01:40:13.571Z,15.90
2022-10-05T01:42:54.147Z,15.80
2022-10-05T01:45:34.220Z,15.80
2022-10-05T01:48:10.390Z,15.90
2022-10-05T01:50:52.412Z,15.90
2022-10-05T01:53:29.035Z,15.90
2022-10-05T01:56:07.510Z,15.90
2022-10-05T01:58:45.452Z,15.90
2022-10-05T02:01:20.739Z,15.80
2022-10-05T02:03:54.125Z,15.60
2022-10-05T02:06:24.743Z,15.60
2022-10-05T02:08:59.597Z,15.70
2022-10-05T02:11:27.603Z,15.70
2022-10-05T02:14:00.142Z,15.70
2022-10-05T02:16:34.961Z,15.80
2022-10-05T02:19:10.203Z,15.90
2022-10-05T02:21:38.157Z,15.90
2022-10-05T02:24:11.589Z,16.00
2022-10-05T02:26:41.513Z,16.00
2022-10-05T02:29:13.440Z,16.10
2022-10-05T02:31:49.772Z,16.00
2022-10-05T02:34:25.281Z,15.90
2022-10-05T02:36:58.980Z,15.80
2022-10-05T02:39:33.950Z,15.80
2022-10-05T02:42:10.327Z,15.80
2022-10-05T02:44:46.723Z,15.70
2022-10-05T02:47:27.893Z,15.70
2022-10-05T02:50:04.177Z,15.60
2022-10-05T02:52:44.559Z,15.70
2022-10-05T02:55:18.894Z,15.70
2022-10-05T02:57:56.049Z,15.50
2022-10-05T03:00:26.210Z,15.40
2022-10-05T03:03:03.135Z,15.40
2022-10-05T03:05:36.347Z,15.50
2022-10-05T03:08:10.449Z,15.50
2022-10-05T03:10:44.632Z,15.60
2022-10-05T03:13:23.834Z,15.70
2022-10-05T03:16:15.843Z,15.80
2022-10-05T03:18:57.269Z,15.90
2022-10-05T03:21:44.963Z,15.90
2022-10-05T03:24:28.086Z,15.90
2022-10-05T03:27:03.303Z,16.00
2022-10-05T03:29:38.970Z,16.00
2022-10-05T03:32:18.774Z,16.10
2022-10-05T03:34:52.018Z,16.10
2022-10-05T03:37:27.966Z,16.10
2022-10-05T03:40:02.966Z,16.20
2022-10-05T03:42:38.906Z,16.20
2022-10-05T03:45:15.530Z,16.20
2022-10-05T03:47:50.496Z,16.20
2022-10-05T03:50:32.547Z,16.10
2022-10-05T03:53:05.319Z,16.10
2022-10-05T03:55:38.196Z,16.10
2022-10-05T03:58:12.251Z,16.10
2022-10-05T04:00:43.719Z,16.10
2022-10-05T04:03:17.955Z,16.10
2022-10-05T04:05:50.917Z,16.10
2022-10-05T04:08:24.935Z,16.10
2022-10-05T04:10:55.423Z,16.10
2022-10-05T04:13:30.396Z,16.20
2022-10-05T04:16:03.530Z,16.10
2022-10-05T04:18:35.751Z,16.10
2022-10-05T04:21:09.948Z,16.00
2022-10-05T04:23:47.923Z,16.10
2022-10-05T04:26:20.420Z,16.10
2022-10-05T04:28:55.190Z,16.10
2022-10-05T04:31:37.118Z,16.00
2022-10-05T04:34:11.903Z,16.00
2022-10-05T04:36:50.103Z,16.00
2022-10-05T04:39:24.939Z,16.10
2022-10-05T04:42:03.695Z,16.10
2022-10-05T04:44:59.069Z,16.10
2022-10-05T04:47:46.527Z,16.00
2022-10-05T04:50:26.154Z,15.90
2022-10-05T04:53:02.113Z,16.00
2022-10-05T04:55:36.810Z,16.10
2022-10-05T04:58:15.136Z,16.20
2022-10-05T05:00:54.947Z,16.10
2022-10-05T05:03:40.931Z,16.10
2022-10-05T05:06:22.487Z,16.10
2022-10-05T05:09:15.004Z,16.10
2022-10-05T05:11:55.601Z,16.00
2022-10-05T05:14:42.137Z,15.90
2022-10-05T05:17:25.002Z,16.00
2022-10-05T05:20:04.875Z,16.10
2022-10-05T05:22:39.858Z,16.20
2022-10-05T05:25:26.303Z,16.30
2022-10-05T05:27:56.357Z,16.40
2022-10-05T05:30:28.111Z,16.60
2022-10-05T05:33:07.665Z,16.50
2022-10-05T05:36:01.316Z,16.50
2022-10-05T05:38:34.343Z,16.50
2022-10-05T05:41:10.325Z,16.50
2022-10-05T05:44:05.857Z,16.50
2022-10-05T05:47:02.385Z,16.70
2022-10-05T05:49:33.215Z,16.80
2022-10-05T05:52:05.655Z,16.90
2022-10-05T05:54:39.817Z,17.00
2022-10-05T05:57:15.541Z,16.90
2022-10-05T05:59:54.489Z,17.00
2022-10-05T06:02:26.410Z,17.10
2022-10-05T06:04:59.541Z,17.10
2022-10-05T06:07:30.987Z,17.10
2022-10-05T06:10:07.002Z,17.10
2022-10-05T06:12:42.580Z,17.00
2022-10-05T06:15:20.918Z,17.20
2022-10-05T06:17:53.147Z,17.30
2022-10-05T06:20:25.317Z,17.10
2022-10-05T06:22:55.882Z,17.00
2022-10-05T06:25:33.114Z,16.90
2022-10-05T06:28:10.154Z,16.80
2022-10-05T06:30:48.852Z,16.80
2022-10-05T06:33:29.665Z,16.80
2022-10-05T06:36:13.743Z,16.70
2022-10-05T06:39:01.071Z,16.60
2022-10-05T06:41:40.102Z,16.70
2022-10-05T06:44:15.728Z,16.60
2022-10-05T06:46:54.408Z,16.60
2022-10-05T06:49:27.521Z,16.50
2022-10-05T06:51:59.573Z,16.60
2022-10-05T06:54:42.642Z,16.50
2022-10-05T06:57:20.904Z,16.50
2022-10-05T06:59:57.379Z,16.50
2022-10-05T07:02:35.910Z,16.40
2022-10-05T07:05:41.680Z,16.50
2022-10-05T07:08:12.940Z,16.60
2022-10-05T07:10:50.591Z,16.60
2022-10-05T07:13:41.406Z,16.70
2022-10-05T07:16:18.594Z,16.90
2022-10-05T07:19:10.157Z,17.20
2022-10-05T07:21:45.665Z,17.30
2022-10-05T07:24:29.356Z,17.30
2022-10-05T07:27:08.071Z,17.30
2022-10-05T07:29:46.721Z,17.10
2022-10-05T07:32:31.509Z,17.00
2022-10-05T07:35:09.353Z,16.90
2022-10-05T07:40:56.499Z,16.80
2022-10-05T07:44:00.438Z,16.70
2022-10-05T07:46:28.466Z,16.80
2022-10-05T07:49:03.370Z,16.80
2022-10-05T07:51:37.633Z,16.80
2022-10-05T07:54:17.877Z,16.80
2022-10-05T07:56:50.869Z,16.80
2022-10-05T07:59:30.032Z,16.80
2022-10-05T08:02:08.313Z,16.70
2022-10-05T08:04:46.171Z,16.60
2022-10-05T08:07:20.361Z,16.60
2022-10-05T08:09:56.108Z,16.70
2022-10-05T08:12:31.993Z,16.70
2022-10-05T08:15:04.581Z,16.90
2022-10-05T08:17:44.824Z,16.90
2022-10-05T08:20:27.639Z,17.10
2022-10-05T08:23:00.975Z,17.20
2022-10-05T08:25:40.673Z,17.30
2022-10-05T08:28:16.117Z,17.30
2022-10-05T08:30:56.541Z,17.40
2022-10-05T08:33:26.301Z,17.40
2022-10-05T08:36:05.017Z,17.40
2022-10-05T08:38:34.562Z,17.40
2022-10-05T08:41:24.722Z,17.40
2022-10-05T08:44:44.645Z,17.50
2022-10-05T08:47:22.132Z,17.50
2022-10-05T08:50:09.137Z,17.60
2022-10-05T08:53:01.272Z,17.50
2022-10-05T08:55:42.223Z,17.60
2022-10-05T08:58:50.656Z,17.60
2022-10-05T09:01:28.032Z,17.60
2022-10-05T09:04:21.317Z,17.60
2022-10-05T09:07:11.562Z,17.60
2022-10-05T09:10:15.129Z,17.60
2022-10-05T09:13:19.757Z,17.60
2022-10-05T09:16:27.618Z,17.60
2022-10-05T09:19:22.801Z,17.60
2022-10-05T09:21:58.195Z,17.40
2022-10-05T09:24:43.883Z,17.30
2022-10-05T09:27:18.129Z,17.30
2022-10-05T09:30:05.891Z,17.40
2022-10-05T09:32:57.729Z,17.50
2022-10-05T09:36:07.785Z,17.60
2022-10-05T09:39:00.092Z,17.70
2022-10-05T09:41:50.281Z,17.70
2022-10-05T09:44:52.848Z,17.80
2022-10-05T09:47:52.384Z,17.80
2022-10-05T09:50:55.265Z,17.90
2022-10-05T09:54:10.683Z,18.00
2022-10-05T09:57:11.953Z,18.00
2022-10-05T10:00:10.035Z,18.00
2022-10-05T10:02:58.824Z,18.10
2022-10-05T10:05:45.362Z,18.10
2022-10-05T10:08:30.623Z,18.20
2022-10-05T10:11:21.234Z,18.20
2022-10-05T10:14:34.128Z,18.20
2022-10-05T10:17:13.767Z,18.20
2022-10-05T10:20:09.121Z,18.20
2022-10-05T10:23:14.056Z,18.30
2022-10-05T10:26:11.333Z,18.30
2022-10-05T10:29:14.800Z,18.30
2022-10-05T10:31:58.686Z,18.30
2022-10-05T10:34:54.286Z,18.30
2022-10-05T10:37:40.992Z,18.40
2022-10-05T10:40:29.751Z,18.40
2022-10-05T10:43:30.977Z,18.40
2022-10-05T10:46:09.839Z,18.40
2022-10-05T10:48:58.815Z,18.30
2022-10-05T10:51:54.196Z,18.20
2022-10-05T10:54:53.067Z,18.10
2022-10-05T10:57:30.363Z,18.00
2022-10-05T11:00:25.397Z,18.00
2022-10-05T11:03:24.171Z,17.90
2022-10-05T11:06:24.828Z,18.00
2022-10-05T11:09:09.480Z,17.90
2022-10-05T11:11:59.106Z,17.90
2022-10-05T11:14:57.724Z,17.90
2022-10-05T11:17:52.132Z,17.90
2022-10-05T11:21:00.901Z,17.90
2022-10-05T11:23:48.097Z,17.90
2022-10-05T11:26:32.463Z,17.90
2022-10-05T11:29:22.098Z,18.00
2022-10-05T11:32:17.791Z,18.00
2022-10-05T11:35:04.344Z,18.00
2022-10-05T11:38:05.238Z,18.10
2022-10-05T11:41:05.944Z,18.10
2022-10-05T11:43:51.346Z,18.20
2022-10-05T11:46:28.722Z,18.30
2022-10-05T11:49:17.976Z,18.30
2022-10-05T11:51:54.321Z,18.40
2022-10-05T11:54:58.502Z,18.40
2022-10-05T11:57:29.559Z,18.50
2022-10-05T12:00:03.986Z,18.50
2022-10-05T12:03:09.296Z,18.60
2022-10-05T12:05:49.409Z,18.70
2022-10-05T12:08:28.904Z,18.80
2022-10-05T12:11:08.051Z,18.80
2022-10-05T12:13:43.168Z,18.90
2022-10-05T12:16:18.180Z,19.00
2022-10-05T12:18:53.420Z,19.00
2022-10-05T12:21:31.925Z,19.00
2022-10-05T12:24:05.782Z,19.10
2022-10-05T12:26:39.653Z,19.20
2022-10-05T12:29:14.813Z,19.20
2022-10-05T12:31:54.068Z,19.10
2022-10-05T12:34:35.985Z,19.10
2022-10-05T12:37:12.596Z,19.20
2022-10-05T12:39:48.098Z,19.20
2022-10-05T12:42:24.032Z,19.20
2022-10-05T12:45:16.919Z,19.20
2022-10-05T12:48:02.109Z,19.30
2022-10-05T12:50:35.480Z,19.40
2022-10-05T12:53:24.114Z,19.50
2022-10-05T12:56:02.432Z,19.50
2022-10-05T12:58:38.647Z,19.50
2022-10-05T13:01:16.842Z,19.60
2022-10-05T13:03:53.394Z,19.60
2022-10-05T13:06:34.030Z,19.60
2022-10-05T13:09:10.131Z,19.60
2022-10-05T13:11:45.492Z,19.70
2022-10-05T13:14:33.189Z,19.70
2022-10-05T13:17:08.303Z,19.70
2022-10-05T13:19:42.288Z,19.70
2022-10-05T13:22:25.695Z,19.80
2022-10-05T13:25:05.677Z,20.00
2022-10-05T13:27:37.495Z,20.00
2022-10-05T13:30:13.459Z,20.10
2022-10-05T13:32:45.121Z,20.20
2022-10-05T13:35:34.182Z,20.30
2022-10-05T13:38:16.384Z,20.30
2022-10-05T13:40:51.890Z,20.40
2022-10-05T13:43:27.929Z,20.40
2022-10-05T13:46:01.049Z,20.40
2022-10-05T13:48:49.245Z,20.50
2022-10-05T13:51:21.655Z,20.30
2022-10-05T13:53:55.973Z,20.50
2022-10-05T13:56:30.833Z,20.50
2022-10-05T13:59:12.093Z,20.60
2022-10-05T14:01:42.716Z,20.60
2022-10-05T14:04:19.713Z,20.60
2022-10-05T14:06:48.658Z,20.60
2022-10-05T14:09:29.719Z,20.50
2022-10-05T14:12:14.961Z,20.60
2022-10-05T14:14:50.013Z,20.70
2022-10-05T14:17:33.061Z,20.70
2022-10-05T14:20:02.907Z,20.80
2022-10-05T14:22:30.907Z,20.80
2022-10-05T14:25:16.222Z,20.80
2022-10-05T14:27:58.386Z,20.90
2022-10-05T14:30:28.265Z,20.90
2022-10-05T14:33:00.472Z,20.80
2022-10-05T14:35:31.039Z,20.90
2022-10-05T14:38:02.169Z,20.80
2022-10-05T14:40:33.995Z,20.80
2022-10-05T14:43:19.089Z,20.80
2022-10-05T14:45:58.324Z,20.80
2022-10-05T14:48:28.281Z,20.80
2022-10-05T14:50:58.042Z,20.80
2022-10-05T14:53:27.827Z,20.90
2022-10-05T14:56:34.680Z,20.90
2022-10-05T14:59:23.200Z,21.00
2022-10-05T15:01:57.488Z,21.00
2022-10-05T15:04:42.829Z,21.00
2022-10-05T15:07:22.881Z,20.90
2022-10-05T15:10:07.778Z,21.00
2022-10-05T15:12:40.617Z,20.90
2022-10-05T15:15:21.630Z,20.80
2022-10-05T15:17:54.672Z,21.00
2022-10-05T15:20:26.504Z,21.00
2022-10-05T15:23:00.346Z,20.90
2022-10-05T15:25:37.027Z,20.80
2022-10-05T15:28:11.175Z,20.80
2022-10-05T15:30:45.138Z,20.80
2022-10-05T15:33:19.143Z,20.70
2022-10-05T15:35:56.761Z,20.70
2022-10-05T15:38:26.530Z,20.70
2022-10-05T15:41:03.193Z,20.70
2022-10-05T15:43:36.704Z,20.70
2022-10-05T15:46:13.888Z,20.70
2022-10-05T15:48:50.135Z,20.70
2022-10-05T15:51:30.447Z,20.80
2022-10-05T15:54:21.886Z,20.70
2022-10-05T15:56:58.273Z,20.70
2022-10-05T15:59:37.217Z,20.90
2022-10-05T16:02:15.356Z,21.00
2022-10-05T16:04:53.282Z,21.10
2022-10-05T16:07:43.874Z,21.20
2022-10-05T16:10:17.370Z,21.30
2022-10-05T16:12:55.498Z,21.40
2022-10-05T16:15:29.263Z,21.40
2022-10-05T16:18:18.382Z,21.40
2022-10-05T16:20:52.221Z,21.40
2022-10-05T16:23:31.115Z,21.40
2022-10-05T16:26:14.588Z,21.40
2022-10-05T16:28:50.851Z,21.50
2022-10-05T16:31:23.271Z,21.40
2022-10-05T16:34:06.519Z,21.40
2022-10-05T16:36:48.663Z,21.40
2022-10-05T16:39:22.441Z,21.40
2022-10-05T16:41:57.473Z,21.30
2022-10-05T16:44:37.312Z,21.40
2022-10-05T16:47:27.862Z,21.40
2022-10-05T16:50:04.120Z,21.40
2022-10-05T16:52:34.025Z,21.40
2022-10-05T16:55:06.168Z,21.40
2022-10-05T16:57:39.641Z,21.40
2022-10-05T17:00:23.522Z,21.40
2022-10-05T17:03:06.003Z,21.40
2022-10-05T17:05:51.258Z,21.40
2022-10-05T17:08:36.538Z,21.50
2022-10-05T17:11:16.012Z,21.40
2022-10-05T17:14:17.556Z,21.40
2022-10-05T17:16:58.559Z,21.40
2022-10-05T17:19:47.593Z,21.30
2022-10-05T17:22:26.248Z,21.30
2022-10-05T17:25:01.824Z,21.30
2022-10-05T17:27:35.190Z,21.20
2022-10-05T17:30:23.431Z,21.20
2022-10-05T17:33:00.563Z,21.00
2022-10-05T17:35:58.108Z,21.10
2022-10-05T17:38:47.465Z,21.10
2022-10-05T17:41:18.939Z,21.20
2022-10-05T17:44:26.084Z,21.20
2022-10-05T17:46:58.789Z,21.20
2022-10-05T17:49:47.798Z,21.20
2022-10-05T17:52:41.727Z,21.20
2022-10-05T17:55:48.244Z,21.30
2022-10-05T17:59:01.980Z,21.00
2022-10-05T18:01:39.730Z,21.10
2022-10-05T18:04:33.527Z,21.20
2022-10-05T18:07:19.928Z,21.20
2022-10-05T18:09:56.784Z,21.10
2022-10-05T18:12:41.434Z,21.10
2022-10-05T18:15:45.083Z,21.10
2022-10-05T18:18:49.705Z,21.20
2022-10-05T18:21:59.568Z,21.20
2022-10-05T18:25:03.495Z,21.20
2022-10-05T18:27:51.687Z,21.20
2022-10-05T18:30:23.032Z,21.20
2022-10-05T18:33:20.725Z,21.20
2022-10-05T18:35:58.977Z,21.20
2022-10-05T18:38:37.118Z,21.20
2022-10-05T18:41:13.539Z,21.10
2022-10-05T18:43:49.023Z,21.10
2022-10-05T18:46:28.045Z,21.10
2022-10-05T18:49:08.595Z,21.10
2022-10-05T18:51:50.920Z,21.10
2022-10-05T18:54:35.147Z,21.10
2022-10-05T18:57:45.234Z,21.10
2022-10-05T19:00:17.072Z,21.10
2022-10-05T19:02:49.425Z,21.20
2022-10-05T19:05:49.124Z,21.10
2022-10-05T19:08:28.121Z,21.10
2022-10-05T19:10:59.587Z,21.10
2022-10-05T19:13:38.587Z,21.10
2022-10-05T19:16:29.796Z,21.10
2022-10-05T19:19:29.471Z,21.10
2022-10-05T19:22:05.350Z,21.10
2022-10-05T19:24:43.182Z,21.00
2022-10-05T19:27:20.175Z,21.00
2022-10-05T19:30:15.466Z,20.90
2022-10-05T19:32:58.757Z,20.80
2022-10-05T19:35:33.822Z,20.80
2022-10-05T19:38:16.677Z,20.80
2022-10-05T19:40:54.096Z,20.90
2022-10-05T19:43:50.535Z,20.90
2022-10-05T19:46:31.246Z,20.90
2022-10-05T19:49:00.132Z,20.80
2022-10-05T19:51:30.676Z,20.80
2022-10-05T19:54:02.143Z,20.90
2022-10-05T19:56:34.127Z,20.80
2022-10-05T19:59:13.140Z,20.80
2022-10-05T20:01:50.552Z,20.90
2022-10-05T20:04:34.289Z,20.90
2022-10-05T20:07:03.213Z,20.80
2022-10-05T20:09:50.110Z,20.80
2022-10-05T20:12:18.054Z,20.80
2022-10-05T20:15:05.959Z,20.80
2022-10-05T20:17:52.475Z,20.80
2022-10-05T20:20:31.208Z,20.80
2022-10-05T20:23:21.299Z,20.80
2022-10-05T20:26:09.682Z,20.80
2022-10-05T20:28:37.688Z,20.80
2022-10-05T20:31:07.866Z,20.80
2022-10-05T20:33:37.157Z,20.80
2022-10-05T20:36:05.709Z,20.80
2022-10-05T20:38:40.639Z,20.80
2022-10-05T20:41:09.134Z,20.70
2022-10-05T20:43:38.947Z,20.70
2022-10-05T20:46:07.465Z,20.70
2022-10-05T20:48:37.019Z,20.70
2022-10-05T20:51:05.111Z,20.70
2022-10-05T20:53:33.506Z,20.70
2022-10-05T20:56:02.355Z,20.70
2022-10-05T20:58:30.746Z,20.70
2022-10-05T21:01:18.317Z,20.70
2022-10-05T21:03:47.909Z,20.70
2022-10-05T21:06:15.815Z,20.70
2022-10-05T21:08:44.074Z,20.70
2022-10-05T21:11:12.082Z,20.70
2022-10-05T21:13:44.576Z,20.70
2022-10-05T21:16:13.456Z,20.70
2022-10-05T21:18:41.603Z,20.70
2022-10-05T21:21:10.940Z,20.70
2022-10-05T21:23:38.803Z,20.70
2022-10-05T21:26:07.866Z,20.70
2022-10-05T21:28:35.858Z,20.70
2022-10-05T21:31:03.788Z,20.60
2022-10-05T21:33:31.890Z,20.70
2022-10-05T21:36:00.109Z,20.70
2022-10-05T21:38:29.902Z,20.70
2022-10-05T21:40:58.084Z,20.70
2022-10-05T21:43:26.440Z,20.70
2022-10-05T21:45:56.233Z,20.70
2022-10-05T21:48:26.659Z,20.60
2022-10-05T21:50:54.904Z,20.60
2022-10-05T21:53:26.852Z,20.60
2022-10-05T21:55:59.613Z,20.60
2022-10-05T21:58:31.079Z,20.60
2022-10-05T22:00:59.166Z,20.40
2022-10-05T22:03:27.080Z,20.50
2022-10-05T22:05:55.229Z,20.50
2022-10-05T22:08:25.827Z,20.30
2022-10-05T22:10:55.681Z,20.30
2022-10-05T22:13:26.048Z,20.30
2022-10-05T22:15:55.249Z,20.30
2022-10-05T22:18:25.109Z,20.30
2022-10-05T22:20:54.079Z,20.40
2022-10-05T22:23:21.942Z,20.50
2022-10-05T22:25:50.059Z,20.40
2022-10-05T22:28:19.413Z,20.40
2022-10-05T22:30:48.162Z,20.40
2022-10-05T22:33:16.015Z,20.30
2022-10-05T22:35:44.101Z,20.30
2022-10-05T22:38:12.026Z,20.40
2022-10-05T22:40:39.914Z,20.40
2022-10-05T22:43:07.808Z,20.30
2022-10-05T22:45:37.052Z,20.20
2022-10-05T22:48:06.000Z,20.30
2022-10-05T22:50:33.930Z,20.00
2022-10-05T22:53:01.815Z,20.10
2022-10-05T22:55:29.720Z,20.10
2022-10-05T22:57:57.639Z,19.90
2022-10-05T23:00:40.332Z,19.80
2022-10-05T23:03:16.566Z,19.80
2022-10-05T23:05:44.420Z,19.90
2022-10-05T23:08:12.304Z,20.00
2022-10-05T23:10:40.163Z,20.00
2022-10-05T23:13:08.704Z,20.10
2022-10-05T23:15:36.603Z,20.10
2022-10-05T23:18:04.696Z,20.20
2022-10-05T23:20:33.887Z,20.00
2022-10-05T23:23:01.744Z,20.00
2022-10-05T23:25:29.791Z,19.90
2022-10-05T23:27:57.752Z,20.00
2022-10-05T23:30:25.734Z,20.10
2022-10-05T23:32:53.639Z,20.00
2022-10-05T23:35:21.578Z,20.10
2022-10-05T23:37:51.104Z,20.10
2022-10-05T23:40:19.135Z,20.10
2022-10-05T23:42:47.217Z,20.00
2022-10-05T23:45:15.139Z,20.10
2022-10-05T23:47:43.024Z,19.90
2022-10-05T23:50:11.082Z,20.00
2022-10-05T23:52:39.191Z,19.90
2022-10-05T23:55:09.198Z,20.00
2022-10-05T23:57:38.227Z,20.00
